sensor_id;sensor_type;location;lat;lon;timestamp;P1;durP1;ratioP1;P2;durP2;ratioP2
28625;SDS011;18905;42.668;23.364;2022-11-28T00:02:07;22.27;;;12.75;;
28625;SDS011;18905;42.668;23.364;2022-11-28T00:04:32;22.88;;;13.00;;
28625;SDS011;18905;42.668;23.364;2022-11-28T00:06:58;21.00;;;11.95;;
28625;SDS011;18905;42.668;23.364;2022-11-28T00:09:23;20.20;;;12.05;;
28625;SDS011;18905;42.668;23.364;2022-11-28T00:11:49;24.52;;;12.13;;
28625;SDS011;18905;42.668;23.364;2022-11-28T00:14:15;20.58;;;11.90;;
28625;SDS011;18905;42.668;23.364;2022-11-28T00:16:43;21.10;;;12.00;;
28625;SDS011;18905;42.668;23.364;2022-11-28T00:19:09;24.70;;;12.10;;
28625;SDS011;18905;42.668;23.364;2022-11-28T00:21:36;21.35;;;11.63;;
28625;SDS011;18905;42.668;23.364;2022-11-28T00:24:02;21.55;;;12.43;;
28625;SDS011;18905;42.668;23.364;2022-11-28T00:26:29;20.48;;;11.25;;
28625;SDS011;18905;42.668;23.364;2022-11-28T00:28:57;21.38;;;12.05;;
28625;SDS011;18905;42.668;23.364;2022-11-28T00:31:24;17.05;;;10.68;;
28625;SDS011;18905;42.668;23.364;2022-11-28T00:33:51;21.50;;;11.73;;
28625;SDS011;18905;42.668;23.364;2022-11-28T00:36:16;23.50;;;11.10;;
28625;SDS011;18905;42.668;23.364;2022-11-28T00:38:42;19.52;;;11.57;;
28625;SDS011;18905;42.668;23.364;2022-11-28T00:41:09;21.25;;;10.93;;
28625;SDS011;18905;42.668;23.364;2022-11-28T00:43:38;22.52;;;11.60;;
28625;SDS011;18905;42.668;23.364;2022-11-28T00:46:04;16.45;;;9.75;;
28625;SDS011;18905;42.668;23.364;2022-11-28T00:48:31;18.42;;;10.93;;
28625;SDS011;18905;42.668;23.364;2022-11-28T00:51:06;19.25;;;9.98;;
28625;SDS011;18905;42.668;23.364;2022-11-28T00:53:32;16.00;;;9.82;;
28625;SDS011;18905;42.668;23.364;2022-11-28T00:55:57;18.13;;;9.98;;
28625;SDS011;18905;42.668;23.364;2022-11-28T00:58:23;17.15;;;9.55;;
28625;SDS011;18905;42.668;23.364;2022-11-28T01:00:48;18.50;;;9.23;;
28625;SDS011;18905;42.668;23.364;2022-11-28T01:03:13;17.25;;;9.38;;
28625;SDS011;18905;42.668;23.364;2022-11-28T01:05:40;16.40;;;9.50;;
28625;SDS011;18905;42.668;23.364;2022-11-28T01:08:07;16.77;;;8.93;;
28625;SDS011;18905;42.668;23.364;2022-11-28T01:10:33;19.88;;;8.98;;
28625;SDS011;18905;42.668;23.364;2022-11-28T01:13:02;21.42;;;9.13;;
28625;SDS011;18905;42.668;23.364;2022-11-28T01:15:28;15.38;;;8.65;;
28625;SDS011;18905;42.668;23.364;2022-11-28T01:17:53;18.38;;;8.98;;
28625;SDS011;18905;42.668;23.364;2022-11-28T01:20:18;17.83;;;8.57;;
28625;SDS011;18905;42.668;23.364;2022-11-28T01:22:44;16.55;;;7.97;;
28625;SDS011;18905;42.668;23.364;2022-11-28T01:25:09;14.82;;;8.73;;
28625;SDS011;18905;42.668;23.364;2022-11-28T01:27:35;14.52;;;7.80;;
28625;SDS011;18905;42.668;23.364;2022-11-28T01:30:00;14.85;;;8.55;;
28625;SDS011;18905;42.668;23.364;2022-11-28T01:32:25;12.85;;;7.93;;
28625;SDS011;18905;42.668;23.364;2022-11-28T01:34:51;16.08;;;8.10;;
28625;SDS011;18905;42.668;23.364;2022-11-28T01:37:16;14.93;;;7.95;;
28625;SDS011;18905;42.668;23.364;2022-11-28T01:39:42;14.23;;;7.43;;
28625;SDS011;18905;42.668;23.364;2022-11-28T01:42:10;14.52;;;8.43;;
28625;SDS011;18905;42.668;23.364;2022-11-28T01:47:06;13.95;;;7.50;;
28625;SDS011;18905;42.668;23.364;2022-11-28T01:49:33;13.45;;;8.45;;
28625;SDS011;18905;42.668;23.364;2022-11-28T01:52:02;15.02;;;8.18;;
28625;SDS011;18905;42.668;23.364;2022-11-28T01:54:29;16.63;;;8.63;;
28625;SDS011;18905;42.668;23.364;2022-11-28T01:57:18;15.07;;;8.02;;
28625;SDS011;18905;42.668;23.364;2022-11-28T02:00:27;15.25;;;8.60;;
28625;SDS011;18905;42.668;23.364;2022-11-28T02:02:36;14.95;;;7.82;;
28625;SDS011;18905;42.668;23.364;2022-11-28T02:05:04;15.35;;;8.57;;
28625;SDS011;18905;42.668;23.364;2022-11-28T02:07:31;13.95;;;8.63;;
28625;SDS011;18905;42.668;23.364;2022-11-28T02:09:57;17.92;;;9.48;;
28625;SDS011;18905;42.668;23.364;2022-11-28T02:26:00;15.82;;;9.02;;
28625;SDS011;18905;42.668;23.364;2022-11-28T02:34:07;16.13;;;8.30;;
28625;SDS011;18905;42.668;23.364;2022-11-28T02:36:59;12.63;;;7.72;;
28625;SDS011;18905;42.668;23.364;2022-11-28T02:42:18;16.77;;;8.25;;
28625;SDS011;18905;42.668;23.364;2022-11-28T02:44:59;14.02;;;8.60;;
28625;SDS011;18905;42.668;23.364;2022-11-28T02:47:45;17.08;;;8.13;;
28625;SDS011;18905;42.668;23.364;2022-11-28T02:52:50;11.93;;;7.68;;
28625;SDS011;18905;42.668;23.364;2022-11-28T02:55:20;12.43;;;7.35;;
28625;SDS011;18905;42.668;23.364;2022-11-28T02:57:47;12.60;;;7.65;;
28625;SDS011;18905;42.668;23.364;2022-11-28T03:00:28;12.35;;;7.53;;
28625;SDS011;18905;42.668;23.364;2022-11-28T03:05:45;11.77;;;7.43;;
28625;SDS011;18905;42.668;23.364;2022-11-28T03:18:33;11.15;;;6.93;;
28625;SDS011;18905;42.668;23.364;2022-11-28T03:21:06;8.23;;;5.50;;
28625;SDS011;18905;42.668;23.364;2022-11-28T03:23:42;10.38;;;6.45;;
28625;SDS011;18905;42.668;23.364;2022-11-28T03:31:26;8.48;;;5.28;;
28625;SDS011;18905;42.668;23.364;2022-11-28T03:34:06;5.72;;;4.47;;
28625;SDS011;18905;42.668;23.364;2022-11-28T03:36:42;6.32;;;4.57;;
28625;SDS011;18905;42.668;23.364;2022-11-28T03:39:13;6.95;;;4.25;;
28625;SDS011;18905;42.668;23.364;2022-11-28T03:41:53;5.90;;;4.10;;
28625;SDS011;18905;42.668;23.364;2022-11-28T03:44:44;5.13;;;3.90;;
28625;SDS011;18905;42.668;23.364;2022-11-28T03:47:13;4.72;;;3.70;;
28625;SDS011;18905;42.668;23.364;2022-11-28T03:49:40;5.88;;;4.10;;
28625;SDS011;18905;42.668;23.364;2022-11-28T03:52:13;3.75;;;3.08;;
28625;SDS011;18905;42.668;23.364;2022-11-28T03:54:50;7.25;;;3.45;;
28625;SDS011;18905;42.668;23.364;2022-11-28T03:57:38;5.93;;;4.00;;
28625;SDS011;18905;42.668;23.364;2022-11-28T04:00:09;6.78;;;4.28;;
28625;SDS011;18905;42.668;23.364;2022-11-28T04:02:54;5.07;;;3.60;;
28625;SDS011;18905;42.668;23.364;2022-11-28T04:08:13;7.38;;;4.15;;
28625;SDS011;18905;42.668;23.364;2022-11-28T04:11:00;6.50;;;3.50;;
28625;SDS011;18905;42.668;23.364;2022-11-28T04:13:38;5.28;;;3.60;;
28625;SDS011;18905;42.668;23.364;2022-11-28T04:16:10;5.97;;;3.53;;
28625;SDS011;18905;42.668;23.364;2022-11-28T04:24:17;5.00;;;3.00;;
28625;SDS011;18905;42.668;23.364;2022-11-28T04:26:50;4.88;;;3.08;;
28625;SDS011;18905;42.668;23.364;2022-11-28T04:29:22;3.83;;;2.78;;
28625;SDS011;18905;42.668;23.364;2022-11-28T04:31:49;4.60;;;3.22;;
28625;SDS011;18905;42.668;23.364;2022-11-28T04:34:18;4.68;;;2.88;;
28625;SDS011;18905;42.668;23.364;2022-11-28T04:36:45;4.80;;;3.13;;
28625;SDS011;18905;42.668;23.364;2022-11-28T04:39:15;5.35;;;3.60;;
28625;SDS011;18905;42.668;23.364;2022-11-28T04:41:48;4.07;;;3.00;;
28625;SDS011;18905;42.668;23.364;2022-11-28T04:44:20;5.13;;;2.88;;
28625;SDS011;18905;42.668;23.364;2022-11-28T04:46:52;3.63;;;2.58;;
28625;SDS011;18905;42.668;23.364;2022-11-28T04:49:21;5.03;;;2.70;;
28625;SDS011;18905;42.668;23.364;2022-11-28T04:52:09;2.97;;;2.22;;
28625;SDS011;18905;42.668;23.364;2022-11-28T04:57:38;3.83;;;2.45;;
28625;SDS011;18905;42.668;23.364;2022-11-28T05:00:08;3.63;;;2.60;;
28625;SDS011;18905;42.668;23.364;2022-11-28T05:02:36;8.60;;;4.35;;
28625;SDS011;18905;42.668;23.364;2022-11-28T05:05:13;4.25;;;2.88;;
28625;SDS011;18905;42.668;23.364;2022-11-28T05:07:42;3.13;;;2.47;;
28625;SDS011;18905;42.668;23.364;2022-11-28T05:10:07;3.42;;;2.65;;
28625;SDS011;18905;42.668;23.364;2022-11-28T05:12:35;5.22;;;2.92;;
28625;SDS011;18905;42.668;23.364;2022-11-28T05:15:00;3.20;;;2.50;;
28625;SDS011;18905;42.668;23.364;2022-11-28T05:17:26;2.55;;;1.90;;
28625;SDS011;18905;42.668;23.364;2022-11-28T05:19:51;3.15;;;2.38;;
28625;SDS011;18905;42.668;23.364;2022-11-28T05:22:16;3.75;;;2.50;;
28625;SDS011;18905;42.668;23.364;2022-11-28T05:24:42;3.38;;;2.50;;
28625;SDS011;18905;42.668;23.364;2022-11-28T05:27:07;3.72;;;2.50;;
28625;SDS011;18905;42.668;23.364;2022-11-28T05:29:35;3.40;;;2.65;;
28625;SDS011;18905;42.668;23.364;2022-11-28T05:32:01;3.85;;;3.05;;
28625;SDS011;18905;42.668;23.364;2022-11-28T05:34:26;2.95;;;2.30;;
28625;SDS011;18905;42.668;23.364;2022-11-28T05:36:53;4.05;;;2.85;;
28625;SDS011;18905;42.668;23.364;2022-11-28T05:39:19;4.80;;;2.95;;
28625;SDS011;18905;42.668;23.364;2022-11-28T05:41:44;4.43;;;3.22;;
28625;SDS011;18905;42.668;23.364;2022-11-28T05:44:10;6.38;;;3.65;;
28625;SDS011;18905;42.668;23.364;2022-11-28T05:46:35;5.03;;;3.20;;
28625;SDS011;18905;42.668;23.364;2022-11-28T05:49:00;8.07;;;3.97;;
28625;SDS011;18905;42.668;23.364;2022-11-28T05:51:26;4.60;;;3.30;;
28625;SDS011;18905;42.668;23.364;2022-11-28T05:53:51;5.13;;;3.75;;
28625;SDS011;18905;42.668;23.364;2022-11-28T05:56:18;9.57;;;3.40;;
28625;SDS011;18905;42.668;23.364;2022-11-28T05:58:46;6.13;;;3.22;;
28625;SDS011;18905;42.668;23.364;2022-11-28T06:01:12;5.03;;;3.97;;
28625;SDS011;18905;42.668;23.364;2022-11-28T06:03:38;9.07;;;4.35;;
28625;SDS011;18905;42.668;23.364;2022-11-28T06:06:03;6.00;;;3.72;;
28625;SDS011;18905;42.668;23.364;2022-11-28T06:08:29;6.85;;;4.15;;
28625;SDS011;18905;42.668;23.364;2022-11-28T06:10:57;8.68;;;4.53;;
28625;SDS011;18905;42.668;23.364;2022-11-28T06:13:23;7.05;;;4.55;;
28625;SDS011;18905;42.668;23.364;2022-11-28T06:15:50;8.95;;;5.60;;
28625;SDS011;18905;42.668;23.364;2022-11-28T06:18:15;7.22;;;4.22;;
28625;SDS011;18905;42.668;23.364;2022-11-28T06:20:41;8.50;;;4.88;;
28625;SDS011;18905;42.668;23.364;2022-11-28T06:23:06;6.85;;;4.22;;
28625;SDS011;18905;42.668;23.364;2022-11-28T06:25:32;9.32;;;5.15;;
28625;SDS011;18905;42.668;23.364;2022-11-28T06:27:57;5.93;;;3.70;;
28625;SDS011;18905;42.668;23.364;2022-11-28T06:30:23;7.45;;;4.38;;
28625;SDS011;18905;42.668;23.364;2022-11-28T06:32:48;8.77;;;4.53;;
28625;SDS011;18905;42.668;23.364;2022-11-28T06:35:13;8.52;;;5.07;;
28625;SDS011;18905;42.668;23.364;2022-11-28T06:37:39;7.70;;;4.45;;
28625;SDS011;18905;42.668;23.364;2022-11-28T06:40:04;9.32;;;4.90;;
28625;SDS011;18905;42.668;23.364;2022-11-28T06:42:30;9.07;;;4.80;;
28625;SDS011;18905;42.668;23.364;2022-11-28T06:44:56;9.50;;;5.63;;
28625;SDS011;18905;42.668;23.364;2022-11-28T06:47:21;7.88;;;4.95;;
28625;SDS011;18905;42.668;23.364;2022-11-28T06:49:47;10.20;;;5.35;;
28625;SDS011;18905;42.668;23.364;2022-11-28T06:52:13;10.40;;;5.63;;
28625;SDS011;18905;42.668;23.364;2022-11-28T06:54:38;9.25;;;6.05;;
28625;SDS011;18905;42.668;23.364;2022-11-28T06:57:04;10.35;;;6.53;;
28625;SDS011;18905;42.668;23.364;2022-11-28T06:59:29;11.88;;;6.45;;
28625;SDS011;18905;42.668;23.364;2022-11-28T07:01:55;11.20;;;6.82;;
28625;SDS011;18905;42.668;23.364;2022-11-28T07:04:21;9.27;;;6.05;;
28625;SDS011;18905;42.668;23.364;2022-11-28T07:06:47;10.80;;;6.60;;
28625;SDS011;18905;42.668;23.364;2022-11-28T07:09:12;10.98;;;6.10;;
28625;SDS011;18905;42.668;23.364;2022-11-28T07:11:39;8.15;;;5.25;;
28625;SDS011;18905;42.668;23.364;2022-11-28T07:14:05;11.55;;;6.22;;
28625;SDS011;18905;42.668;23.364;2022-11-28T07:16:31;12.88;;;6.18;;
28625;SDS011;18905;42.668;23.364;2022-11-28T07:18:57;10.35;;;6.00;;
28625;SDS011;18905;42.668;23.364;2022-11-28T07:21:23;11.00;;;6.20;;
28625;SDS011;18905;42.668;23.364;2022-11-28T07:23:49;9.00;;;5.72;;
28625;SDS011;18905;42.668;23.364;2022-11-28T07:26:15;11.05;;;6.78;;
28625;SDS011;18905;42.668;23.364;2022-11-28T07:28:43;11.02;;;6.47;;
28625;SDS011;18905;42.668;23.364;2022-11-28T07:31:10;12.80;;;7.57;;
28625;SDS011;18905;42.668;23.364;2022-11-28T07:33:39;17.38;;;10.15;;
28625;SDS011;18905;42.668;23.364;2022-11-28T07:36:07;17.52;;;9.95;;
28625;SDS011;18905;42.668;23.364;2022-11-28T07:38:36;21.15;;;10.45;;
28625;SDS011;18905;42.668;23.364;2022-11-28T07:41:06;18.65;;;10.38;;
28625;SDS011;18905;42.668;23.364;2022-11-28T07:43:33;21.23;;;10.82;;
28625;SDS011;18905;42.668;23.364;2022-11-28T07:46:01;19.48;;;11.52;;
28625;SDS011;18905;42.668;23.364;2022-11-28T07:48:28;20.95;;;10.43;;
28625;SDS011;18905;42.668;23.364;2022-11-28T07:50:54;20.58;;;10.88;;
28625;SDS011;18905;42.668;23.364;2022-11-28T07:53:19;15.90;;;9.13;;
28625;SDS011;18905;42.668;23.364;2022-11-28T07:55:45;19.25;;;9.05;;
28625;SDS011;18905;42.668;23.364;2022-11-28T07:58:10;17.17;;;9.68;;
28625;SDS011;18905;42.668;23.364;2022-11-28T08:00:35;19.73;;;11.23;;
28625;SDS011;18905;42.668;23.364;2022-11-28T08:03:01;19.17;;;10.80;;
28625;SDS011;18905;42.668;23.364;2022-11-28T08:05:26;24.42;;;10.52;;
28625;SDS011;18905;42.668;23.364;2022-11-28T08:07:52;22.05;;;10.38;;
28625;SDS011;18905;42.668;23.364;2022-11-28T08:10:17;20.30;;;11.23;;
28625;SDS011;18905;42.668;23.364;2022-11-28T08:12:43;18.88;;;10.90;;
28625;SDS011;18905;42.668;23.364;2022-11-28T08:15:08;20.65;;;12.00;;
28625;SDS011;18905;42.668;23.364;2022-11-28T08:17:34;18.83;;;9.85;;
28625;SDS011;18905;42.668;23.364;2022-11-28T08:20:00;16.70;;;9.63;;
28625;SDS011;18905;42.668;23.364;2022-11-28T08:22:26;16.08;;;9.45;;
28625;SDS011;18905;42.668;23.364;2022-11-28T08:24:52;16.00;;;9.77;;
28625;SDS011;18905;42.668;23.364;2022-11-28T08:27:17;17.52;;;10.73;;
28625;SDS011;18905;42.668;23.364;2022-11-28T08:29:42;15.35;;;9.10;;
28625;SDS011;18905;42.668;23.364;2022-11-28T08:32:08;20.45;;;10.77;;
28625;SDS011;18905;42.668;23.364;2022-11-28T08:34:33;20.88;;;11.02;;
28625;SDS011;18905;42.668;23.364;2022-11-28T08:36:58;25.17;;;12.52;;
28625;SDS011;18905;42.668;23.364;2022-11-28T08:39:24;22.23;;;13.02;;
28625;SDS011;18905;42.668;23.364;2022-11-28T08:41:50;22.23;;;12.98;;
28625;SDS011;18905;42.668;23.364;2022-11-28T08:44:17;27.45;;;13.00;;
28625;SDS011;18905;42.668;23.364;2022-11-28T08:46:42;22.10;;;12.07;;
28625;SDS011;18905;42.668;23.364;2022-11-28T08:49:08;20.13;;;12.35;;
28625;SDS011;18905;42.668;23.364;2022-11-28T08:51:33;30.10;;;12.65;;
28625;SDS011;18905;42.668;23.364;2022-11-28T08:53:59;23.42;;;13.30;;
28625;SDS011;18905;42.668;23.364;2022-11-28T08:56:24;26.58;;;14.00;;
28625;SDS011;18905;42.668;23.364;2022-11-28T08:58:49;24.00;;;12.98;;
28625;SDS011;18905;42.668;23.364;2022-11-28T09:01:19;20.85;;;12.27;;
28625;SDS011;18905;42.668;23.364;2022-11-28T09:03:46;19.25;;;11.55;;
28625;SDS011;18905;42.668;23.364;2022-11-28T09:06:12;19.95;;;11.70;;
28625;SDS011;18905;42.668;23.364;2022-11-28T09:08:39;15.55;;;9.82;;
28625;SDS011;18905;42.668;23.364;2022-11-28T09:11:05;21.58;;;10.30;;
28625;SDS011;18905;42.668;23.364;2022-11-28T09:13:34;17.70;;;10.48;;
28625;SDS011;18905;42.668;23.364;2022-11-28T09:16:00;18.17;;;9.23;;
28625;SDS011;18905;42.668;23.364;2022-11-28T09:18:26;19.27;;;9.50;;
28625;SDS011;18905;42.668;23.364;2022-11-28T09:20:56;14.30;;;8.85;;
28625;SDS011;18905;42.668;23.364;2022-11-28T09:23:33;14.85;;;9.20;;
28625;SDS011;18905;42.668;23.364;2022-11-28T09:25:59;17.20;;;9.00;;
28625;SDS011;18905;42.668;23.364;2022-11-28T09:28:25;12.98;;;8.43;;
28625;SDS011;18905;42.668;23.364;2022-11-28T09:30:59;17.10;;;8.43;;
28625;SDS011;18905;42.668;23.364;2022-11-28T09:33:25;15.95;;;8.23;;
28625;SDS011;18905;42.668;23.364;2022-11-28T09:35:50;12.32;;;6.93;;
28625;SDS011;18905;42.668;23.364;2022-11-28T09:38:16;8.07;;;4.68;;
28625;SDS011;18905;42.668;23.364;2022-11-28T09:40:42;8.23;;;5.05;;
28625;SDS011;18905;42.668;23.364;2022-11-28T09:43:15;8.20;;;5.10;;
28625;SDS011;18905;42.668;23.364;2022-11-28T09:45:51;9.00;;;4.32;;
28625;SDS011;18905;42.668;23.364;2022-11-28T09:48:23;6.75;;;4.03;;
28625;SDS011;18905;42.668;23.364;2022-11-28T09:50:53;4.97;;;3.40;;
28625;SDS011;18905;42.668;23.364;2022-11-28T09:56:28;5.15;;;3.35;;
28625;SDS011;18905;42.668;23.364;2022-11-28T09:58:54;3.75;;;2.72;;
28625;SDS011;18905;42.668;23.364;2022-11-28T10:04:20;5.63;;;3.35;;
28625;SDS011;18905;42.668;23.364;2022-11-28T10:12:29;4.10;;;3.00;;
28625;SDS011;18905;42.668;23.364;2022-11-28T10:17:50;2.30;;;2.10;;
28625;SDS011;18905;42.668;23.364;2022-11-28T10:20:23;5.00;;;3.28;;
28625;SDS011;18905;42.668;23.364;2022-11-28T10:22:55;5.72;;;2.67;;
28625;SDS011;18905;42.668;23.364;2022-11-28T10:25:25;5.03;;;3.47;;
28625;SDS011;18905;42.668;23.364;2022-11-28T10:27:54;3.78;;;2.63;;
28625;SDS011;18905;42.668;23.364;2022-11-28T10:30:30;4.18;;;3.17;;
28625;SDS011;18905;42.668;23.364;2022-11-28T10:33:23;5.20;;;3.25;;
28625;SDS011;18905;42.668;23.364;2022-11-28T10:35:53;3.70;;;2.75;;
28625;SDS011;18905;42.668;23.364;2022-11-28T10:38:23;4.07;;;2.60;;
28625;SDS011;18905;42.668;23.364;2022-11-28T10:43:21;5.55;;;3.20;;
28625;SDS011;18905;42.668;23.364;2022-11-28T10:57:32;5.32;;;3.35;;
28625;SDS011;18905;42.668;23.364;2022-11-28T11:00:21;6.10;;;3.67;;
28625;SDS011;18905;42.668;23.364;2022-11-28T11:02:47;5.38;;;3.60;;
28625;SDS011;18905;42.668;23.364;2022-11-28T11:05:18;9.38;;;4.05;;
28625;SDS011;18905;42.668;23.364;2022-11-28T11:07:49;8.43;;;4.00;;
28625;SDS011;18905;42.668;23.364;2022-11-28T11:12:55;5.10;;;3.05;;
28625;SDS011;18905;42.668;23.364;2022-11-28T11:18:04;8.27;;;4.78;;
28625;SDS011;18905;42.668;23.364;2022-11-28T11:20:47;10.10;;;4.95;;
28625;SDS011;18905;42.668;23.364;2022-11-28T11:23:20;8.20;;;5.18;;
28625;SDS011;18905;42.668;23.364;2022-11-28T11:25:48;9.65;;;5.00;;
28625;SDS011;18905;42.668;23.364;2022-11-28T11:28:31;12.32;;;5.43;;
28625;SDS011;18905;42.668;23.364;2022-11-28T11:31:03;10.73;;;5.88;;
28625;SDS011;18905;42.668;23.364;2022-11-28T11:33:38;9.23;;;5.43;;
28625;SDS011;18905;42.668;23.364;2022-11-28T11:36:05;9.18;;;5.13;;
28625;SDS011;18905;42.668;23.364;2022-11-28T11:38:45;9.95;;;5.13;;
28625;SDS011;18905;42.668;23.364;2022-11-28T11:41:29;7.40;;;4.53;;
28625;SDS011;18905;42.668;23.364;2022-11-28T11:43:55;8.95;;;4.80;;
28625;SDS011;18905;42.668;23.364;2022-11-28T11:49:27;10.18;;;4.95;;
28625;SDS011;18905;42.668;23.364;2022-11-28T11:51:58;9.50;;;5.25;;
28625;SDS011;18905;42.668;23.364;2022-11-28T11:54:26;12.90;;;5.20;;
28625;SDS011;18905;42.668;23.364;2022-11-28T11:56:53;9.25;;;5.00;;
28625;SDS011;18905;42.668;23.364;2022-11-28T11:59:25;5.57;;;3.30;;
28625;SDS011;18905;42.668;23.364;2022-11-28T12:01:59;5.88;;;3.80;;
28625;SDS011;18905;42.668;23.364;2022-11-28T12:04:31;5.43;;;3.35;;
28625;SDS011;18905;42.668;23.364;2022-11-28T12:07:02;5.22;;;2.97;;
28625;SDS011;18905;42.668;23.364;2022-11-28T12:12:20;6.75;;;3.38;;
28625;SDS011;18905;42.668;23.364;2022-11-28T12:14:48;8.20;;;3.83;;
28625;SDS011;18905;42.668;23.364;2022-11-28T12:31:05;6.60;;;3.80;;
28625;SDS011;18905;42.668;23.364;2022-11-28T12:33:45;8.82;;;3.40;;
28625;SDS011;18905;42.668;23.364;2022-11-28T12:41:37;7.15;;;4.03;;
28625;SDS011;18905;42.668;23.364;2022-11-28T12:55:35;7.38;;;2.90;;
28625;SDS011;18905;42.668;23.364;2022-11-28T12:58:18;6.93;;;3.42;;
28625;SDS011;18905;42.668;23.364;2022-11-28T13:14:59;8.68;;;4.85;;
28625;SDS011;18905;42.668;23.364;2022-11-28T13:17:38;8.05;;;5.22;;
28625;SDS011;18905;42.668;23.364;2022-11-28T13:26:18;8.27;;;5.40;;
28625;SDS011;18905;42.668;23.364;2022-11-28T13:31:22;11.45;;;5.80;;
28625;SDS011;18905;42.668;23.364;2022-11-28T13:33:55;15.27;;;6.30;;
28625;SDS011;18905;42.668;23.364;2022-11-28T13:39:28;7.80;;;5.00;;
28625;SDS011;18905;42.668;23.364;2022-11-28T13:41:53;7.70;;;4.22;;
28625;SDS011;18905;42.668;23.364;2022-11-28T13:44:36;5.90;;;4.07;;
28625;SDS011;18905;42.668;23.364;2022-11-28T13:47:22;7.63;;;4.57;;
28625;SDS011;18905;42.668;23.364;2022-11-28T13:50:29;8.18;;;4.35;;
28625;SDS011;18905;42.668;23.364;2022-11-28T13:52:59;8.98;;;4.40;;
28625;SDS011;18905;42.668;23.364;2022-11-28T13:55:45;6.97;;;4.88;;
28625;SDS011;18905;42.668;23.364;2022-11-28T14:03:46;5.97;;;3.72;;
28625;SDS011;18905;42.668;23.364;2022-11-28T14:06:27;9.88;;;3.95;;
28625;SDS011;18905;42.668;23.364;2022-11-28T14:25:51;8.32;;;2.90;;
28625;SDS011;18905;42.668;23.364;2022-11-28T14:28:24;6.45;;;3.15;;
28625;SDS011;18905;42.668;23.364;2022-11-28T14:33:37;9.65;;;3.88;;
28625;SDS011;18905;42.668;23.364;2022-11-28T14:36:28;6.55;;;3.22;;
28625;SDS011;18905;42.668;23.364;2022-11-28T14:38:59;6.05;;;3.47;;
28625;SDS011;18905;42.668;23.364;2022-11-28T14:41:28;7.05;;;3.33;;
28625;SDS011;18905;42.668;23.364;2022-11-28T14:43:54;4.97;;;3.40;;
28625;SDS011;18905;42.668;23.364;2022-11-28T14:47:05;12.10;;;5.97;;
28625;SDS011;18905;42.668;23.364;2022-11-28T14:49:38;8.90;;;5.03;;
28625;SDS011;18905;42.668;23.364;2022-11-28T14:52:05;9.57;;;5.03;;
28625;SDS011;18905;42.668;23.364;2022-11-28T14:54:33;10.18;;;5.80;;
28625;SDS011;18905;42.668;23.364;2022-11-28T14:57:10;11.90;;;5.53;;
28625;SDS011;18905;42.668;23.364;2022-11-28T15:07:27;16.90;;;7.43;;
28625;SDS011;18905;42.668;23.364;2022-11-28T15:12:48;12.52;;;6.95;;
28625;SDS011;18905;42.668;23.364;2022-11-28T15:15:25;10.77;;;7.13;;
28625;SDS011;18905;42.668;23.364;2022-11-28T15:17:51;12.27;;;5.95;;
28625;SDS011;18905;42.668;23.364;2022-11-28T15:20:29;12.40;;;6.38;;
28625;SDS011;18905;42.668;23.364;2022-11-28T15:23:02;10.85;;;6.30;;
28625;SDS011;18905;42.668;23.364;2022-11-28T15:25:29;12.85;;;6.82;;
28625;SDS011;18905;42.668;23.364;2022-11-28T15:28:14;15.00;;;7.03;;
28625;SDS011;18905;42.668;23.364;2022-11-28T15:30:47;14.32;;;7.47;;
28625;SDS011;18905;42.668;23.364;2022-11-28T15:33:15;15.20;;;8.52;;
28625;SDS011;18905;42.668;23.364;2022-11-28T15:35:51;15.52;;;7.95;;
28625;SDS011;18905;42.668;23.364;2022-11-28T15:38:32;12.75;;;7.00;;
28625;SDS011;18905;42.668;23.364;2022-11-28T15:40:57;12.32;;;7.00;;
28625;SDS011;18905;42.668;23.364;2022-11-28T15:43:24;12.40;;;7.65;;
28625;SDS011;18905;42.668;23.364;2022-11-28T15:45:50;23.85;;;8.30;;
28625;SDS011;18905;42.668;23.364;2022-11-28T15:50:57;14.45;;;7.38;;
28625;SDS011;18905;42.668;23.364;2022-11-28T15:53:23;15.77;;;7.50;;
28625;SDS011;18905;42.668;23.364;2022-11-28T15:56:05;17.13;;;7.63;;
28625;SDS011;18905;42.668;23.364;2022-11-28T15:58:34;14.45;;;7.50;;
28625;SDS011;18905;42.668;23.364;2022-11-28T16:03:33;12.57;;;5.97;;
28625;SDS011;18905;42.668;23.364;2022-11-28T16:06:04;11.52;;;5.13;;
28625;SDS011;18905;42.668;23.364;2022-11-28T16:08:49;8.30;;;4.97;;
28625;SDS011;18905;42.668;23.364;2022-11-28T16:11:18;9.95;;;5.75;;
28625;SDS011;18905;42.668;23.364;2022-11-28T16:13:46;15.82;;;5.32;;
28625;SDS011;18905;42.668;23.364;2022-11-28T16:16:17;13.30;;;4.70;;
28625;SDS011;18905;42.668;23.364;2022-11-28T16:18:54;11.82;;;4.65;;
28625;SDS011;18905;42.668;23.364;2022-11-28T16:23:53;6.97;;;4.25;;
28625;SDS011;18905;42.668;23.364;2022-11-28T16:26:20;9.00;;;4.47;;
28625;SDS011;18905;42.668;23.364;2022-11-28T16:31:32;10.25;;;4.88;;
28625;SDS011;18905;42.668;23.364;2022-11-28T16:33:58;8.55;;;4.78;;
28625;SDS011;18905;42.668;23.364;2022-11-28T16:39:08;12.40;;;5.80;;
28625;SDS011;18905;42.668;23.364;2022-11-28T16:41:52;11.02;;;5.60;;
28625;SDS011;18905;42.668;23.364;2022-11-28T16:44:40;16.60;;;6.00;;
28625;SDS011;18905;42.668;23.364;2022-11-28T16:47:19;11.68;;;6.15;;
28625;SDS011;18905;42.668;23.364;2022-11-28T16:52:44;8.90;;;4.97;;
28625;SDS011;18905;42.668;23.364;2022-11-28T16:57:51;9.10;;;4.97;;
28625;SDS011;18905;42.668;23.364;2022-11-28T17:00:20;13.77;;;4.82;;
28625;SDS011;18905;42.668;23.364;2022-11-28T17:02:49;13.43;;;5.60;;
28625;SDS011;18905;42.668;23.364;2022-11-28T17:05:17;10.43;;;5.15;;
28625;SDS011;18905;42.668;23.364;2022-11-28T17:07:43;8.25;;;4.75;;
28625;SDS011;18905;42.668;23.364;2022-11-28T17:10:11;8.80;;;4.47;;
28625;SDS011;18905;42.668;23.364;2022-11-28T17:12:37;11.88;;;4.78;;
28625;SDS011;18905;42.668;23.364;2022-11-28T17:15:03;6.63;;;4.30;;
28625;SDS011;18905;42.668;23.364;2022-11-28T17:17:30;7.68;;;4.78;;
28625;SDS011;18905;42.668;23.364;2022-11-28T17:19:56;8.70;;;5.03;;
28625;SDS011;18905;42.668;23.364;2022-11-28T17:22:23;12.68;;;6.13;;
28625;SDS011;18905;42.668;23.364;2022-11-28T17:24:52;10.13;;;5.45;;
28625;SDS011;18905;42.668;23.364;2022-11-28T17:27:22;9.75;;;5.40;;
28625;SDS011;18905;42.668;23.364;2022-11-28T17:29:47;12.70;;;5.85;;
28625;SDS011;18905;42.668;23.364;2022-11-28T17:32:13;15.10;;;6.70;;
28625;SDS011;18905;42.668;23.364;2022-11-28T17:34:39;11.65;;;5.47;;
28625;SDS011;18905;42.668;23.364;2022-11-28T17:37:05;9.80;;;5.47;;
28625;SDS011;18905;42.668;23.364;2022-11-28T17:39:31;12.73;;;6.30;;
28625;SDS011;18905;42.668;23.364;2022-11-28T17:41:57;9.98;;;6.38;;
28625;SDS011;18905;42.668;23.364;2022-11-28T17:46:58;13.30;;;6.60;;
28625;SDS011;18905;42.668;23.364;2022-11-28T17:49:28;14.05;;;6.97;;
28625;SDS011;18905;42.668;23.364;2022-11-28T17:51:58;13.70;;;6.80;;
28625;SDS011;18905;42.668;23.364;2022-11-28T17:54:25;17.15;;;7.07;;
28625;SDS011;18905;42.668;23.364;2022-11-28T18:04:37;15.07;;;6.82;;
28625;SDS011;18905;42.668;23.364;2022-11-28T18:07:08;13.60;;;6.95;;
28625;SDS011;18905;42.668;23.364;2022-11-28T18:27:40;19.80;;;3.67;;
28625;SDS011;18905;42.668;23.364;2022-11-28T18:30:06;8.68;;;3.53;;
28625;SDS011;18905;42.668;23.364;2022-11-28T18:35:07;8.10;;;3.38;;
28625;SDS011;18905;42.668;23.364;2022-11-28T18:53:23;4.75;;;2.45;;
28625;SDS011;18905;42.668;23.364;2022-11-28T18:55:58;8.50;;;3.30;;